createdAt,value
2019-02-18T00:02:11.532Z,31.80
2019-02-18T00:04:41.854Z,31.13
2019-02-18T00:07:14.535Z,31.53
2019-02-18T00:09:43.306Z,32.03
2019-02-18T00:12:13.488Z,31.40
2019-02-18T00:14:48.534Z,29.90
2019-02-18T00:17:18.724Z,31.23
2019-02-18T00:19:51.922Z,30.70
2019-02-18T00:22:21.992Z,31.77
2019-02-18T00:24:52.170Z,30.83
2019-02-18T00:27:20.934Z,30.27
2019-02-18T00:29:51.372Z,31.43
2019-02-18T00:32:23.593Z,34.00
2019-02-18T00:34:53.639Z,32.97
2019-02-18T00:37:24.719Z,32.60
2019-02-18T00:39:53.372Z,32.67
2019-02-18T00:42:22.120Z,35.73
2019-02-18T00:44:53.833Z,33.80
2019-02-18T00:47:22.536Z,33.87
2019-02-18T00:49:51.656Z,32.47
2019-02-18T00:52:23.307Z,33.73
2019-02-18T00:54:52.184Z,32.47
2019-02-18T00:57:23.210Z,34.23
2019-02-18T00:59:53.291Z,34.70
2019-02-18T01:02:25.024Z,33.10
2019-02-18T01:04:57.386Z,33.60
2019-02-18T01:07:34.420Z,34.60
2019-02-18T01:09:57.903Z,35.37
2019-02-18T01:12:28.116Z,33.67
2019-02-18T01:14:58.119Z,33.37
2019-02-18T01:17:26.607Z,32.97
2019-02-18T01:19:55.397Z,33.90
2019-02-18T01:22:24.051Z,34.23
2019-02-18T01:24:53.995Z,33.37
2019-02-18T01:27:22.798Z,34.23
2019-02-18T01:29:52.313Z,34.47
2019-02-18T01:32:23.450Z,33.63
2019-02-18T01:34:52.349Z,31.97
2019-02-18T01:37:22.697Z,32.53
2019-02-18T01:39:57.144Z,32.50
2019-02-18T01:42:27.874Z,29.77
2019-02-18T01:44:56.522Z,30.87
2019-02-18T01:47:29.067Z,29.40
2019-02-18T01:49:58.222Z,30.00
2019-02-18T01:52:26.808Z,30.53
2019-02-18T01:54:56.975Z,31.23
2019-02-18T01:57:26.296Z,32.00
2019-02-18T01:59:56.424Z,31.13
2019-02-18T02:02:27.231Z,32.17
2019-02-18T02:04:56.054Z,31.60
2019-02-18T02:07:26.399Z,30.43
2019-02-18T02:09:58.487Z,30.10
2019-02-18T02:12:31.795Z,31.30
2019-02-18T02:15:05.201Z,31.73
2019-02-18T02:17:38.796Z,28.90
2019-02-18T02:20:10.398Z,31.83
2019-02-18T02:22:40.413Z,33.47
2019-02-18T02:25:13.253Z,32.07
2019-02-18T02:27:41.871Z,31.00
2019-02-18T02:30:12.133Z,29.23
2019-02-18T02:32:42.344Z,31.30
2019-02-18T02:35:13.133Z,31.07
2019-02-18T02:37:45.076Z,30.40
2019-02-18T02:40:13.863Z,30.47
2019-02-18T02:42:44.383Z,31.30
2019-02-18T02:45:13.249Z,30.83
2019-02-18T02:47:42.631Z,31.53
2019-02-18T02:50:12.850Z,31.57
2019-02-18T02:52:44.782Z,30.97
2019-02-18T02:55:14.215Z,32.40
2019-02-18T02:57:42.871Z,30.57
2019-02-18T03:00:14.737Z,31.40
2019-02-18T03:02:43.812Z,29.77
2019-02-18T03:05:14.138Z,31.67
2019-02-18T03:07:43.439Z,29.50
2019-02-18T03:10:16.583Z,30.83
2019-02-18T03:12:45.324Z,31.43
2019-02-18T03:15:18.206Z,31.23
2019-02-18T03:17:47.236Z,30.07
2019-02-18T03:20:16.282Z,29.87
2019-02-18T03:22:44.925Z,30.27
2019-02-18T03:25:25.104Z,30.70
2019-02-18T03:27:59.657Z,31.03
2019-02-18T03:30:45.340Z,30.13
2019-02-18T03:33:23.413Z,31.03
2019-02-18T03:35:53.679Z,29.83
2019-02-18T03:38:31.171Z,31.97
2019-02-18T03:41:02.747Z,30.53
2019-02-18T03:43:25.136Z,29.27
2019-02-18T03:45:58.938Z,31.23
2019-02-18T03:48:27.843Z,28.93
2019-02-18T03:50:59.717Z,29.37
2019-02-18T03:53:30.041Z,28.53
2019-02-18T03:56:00.282Z,30.50
2019-02-18T03:58:32.744Z,31.37
2019-02-18T04:01:03.325Z,28.83
2019-02-18T04:03:34.745Z,31.80
2019-02-18T04:06:08.563Z,30.63
2019-02-18T04:08:42.927Z,30.63
2019-02-18T04:11:12.887Z,31.60
2019-02-18T04:13:44.347Z,32.13
2019-02-18T04:16:13.008Z,31.83
2019-02-18T04:18:42.265Z,31.33
2019-02-18T04:21:11.105Z,30.60
2019-02-18T04:23:39.811Z,30.37
2019-02-18T04:26:08.625Z,31.13
2019-02-18T04:28:41.142Z,29.87
2019-02-18T04:31:14.059Z,32.13
2019-02-18T04:33:47.477Z,31.87
2019-02-18T04:36:17.662Z,32.10
2019-02-18T04:38:54.092Z,30.73
2019-02-18T04:41:26.512Z,30.97
2019-02-18T04:43:55.316Z,33.50
2019-02-18T04:46:25.844Z,31.53
2019-02-18T04:48:57.515Z,30.93
2019-02-18T04:51:27.512Z,32.27
2019-02-18T04:54:00.699Z,30.97
2019-02-18T04:56:30.499Z,30.30
2019-02-18T04:58:59.435Z,30.23
2019-02-18T05:01:30.517Z,28.70
2019-02-18T05:04:02.706Z,29.30
2019-02-18T05:06:31.529Z,29.43
2019-02-18T05:09:05.398Z,30.63
2019-02-18T05:11:37.623Z,30.57
2019-02-18T05:14:06.551Z,29.53
2019-02-18T05:16:38.548Z,32.00
2019-02-18T05:19:07.867Z,30.80
2019-02-18T05:21:52.214Z,31.10
2019-02-18T05:24:23.095Z,29.93
2019-02-18T05:26:51.805Z,32.00
2019-02-18T05:29:20.352Z,30.57
2019-02-18T05:31:50.553Z,32.30
2019-02-18T05:34:20.210Z,31.23
2019-02-18T05:36:49.321Z,31.90
2019-02-18T05:39:18.628Z,31.90
2019-02-18T05:41:49.648Z,29.80
2019-02-18T05:44:18.687Z,31.03
2019-02-18T05:46:48.789Z,29.30
2019-02-18T05:49:17.598Z,30.57
2019-02-18T05:51:47.949Z,28.93
2019-02-18T05:54:16.944Z,30.10
2019-02-18T05:56:47.614Z,30.13
2019-02-18T05:59:17.995Z,31.70
2019-02-18T06:01:49.070Z,30.67
2019-02-18T06:04:19.625Z,29.77
2019-02-18T06:06:48.458Z,33.03
2019-02-18T06:09:29.222Z,30.90
2019-02-18T06:11:50.500Z,32.47
2019-02-18T06:14:20.539Z,30.00
2019-02-18T06:16:50.726Z,31.97
2019-02-18T06:19:19.559Z,31.03
2019-02-18T06:21:48.987Z,31.33
2019-02-18T06:24:17.924Z,33.30
2019-02-18T06:26:48.388Z,32.10
2019-02-18T06:29:20.273Z,31.83
2019-02-18T06:31:53.076Z,32.17
2019-02-18T06:34:24.504Z,31.90
2019-02-18T06:36:58.615Z,31.67
2019-02-18T06:39:27.728Z,32.07
2019-02-18T06:41:57.712Z,34.47
2019-02-18T06:44:28.141Z,30.13
2019-02-18T06:47:01.439Z,33.77
2019-02-18T06:49:32.210Z,33.20
2019-02-18T06:52:02.848Z,34.17
2019-02-18T06:54:37.570Z,33.87
2019-02-18T06:57:18.655Z,264.33
2019-02-18T06:59:46.289Z,39.27
2019-02-18T07:02:17.794Z,34.27
2019-02-18T07:04:48.516Z,34.40
2019-02-18T07:07:33.530Z,35.10
2019-02-18T07:10:04.225Z,34.00
2019-02-18T07:12:36.764Z,35.80
2019-02-18T07:15:06.924Z,34.90
2019-02-18T07:17:40.636Z,35.97
2019-02-18T07:20:16.723Z,33.30
2019-02-18T07:22:52.833Z,34.17
2019-02-18T07:25:23.638Z,36.80
2019-02-18T07:27:55.801Z,34.40
2019-02-18T07:30:36.884Z,32.33
2019-02-18T07:33:08.400Z,32.60
2019-02-18T07:35:39.842Z,34.20
2019-02-18T07:38:10.422Z,35.47
2019-02-18T07:40:42.871Z,32.87
2019-02-18T07:43:14.218Z,34.77
2019-02-18T07:45:44.506Z,34.80
2019-02-18T07:48:14.988Z,35.17
2019-02-18T07:50:44.296Z,34.20
2019-02-18T07:53:23.462Z,33.97
2019-02-18T07:56:00.300Z,33.93
2019-02-18T07:58:26.633Z,33.10
2019-02-18T08:01:05.954Z,33.83
2019-02-18T08:03:35.104Z,32.70
2019-02-18T08:06:03.815Z,34.03
2019-02-18T08:08:32.529Z,34.80
2019-02-18T08:11:01.354Z,33.90
2019-02-18T08:13:32.478Z,34.40
2019-02-18T08:16:04.160Z,35.67
2019-02-18T08:18:34.523Z,31.23
2019-02-18T08:21:05.622Z,29.50
2019-02-18T08:23:38.190Z,30.03
2019-02-18T08:26:10.471Z,28.90
2019-02-18T08:28:43.639Z,28.83
2019-02-18T08:31:15.621Z,28.57
2019-02-18T08:33:46.655Z,28.33
2019-02-18T08:36:18.512Z,28.87
2019-02-18T08:38:47.195Z,28.77
2019-02-18T08:41:15.994Z,28.00
2019-02-18T08:43:44.666Z,25.03
2019-02-18T08:46:14.059Z,25.37
2019-02-18T08:48:50.212Z,24.57
2019-02-18T08:51:19.391Z,25.43
2019-02-18T08:53:49.057Z,25.77
2019-02-18T08:56:18.195Z,25.03
2019-02-18T08:58:48.890Z,27.43
2019-02-18T09:01:25.322Z,24.83
2019-02-18T09:03:54.149Z,24.13
2019-02-18T09:06:23.269Z,24.87
2019-02-18T09:08:51.968Z,23.20
2019-02-18T09:11:21.985Z,24.03
2019-02-18T09:13:53.260Z,21.27
2019-02-18T09:16:23.216Z,22.63
2019-02-18T09:18:52.548Z,21.23
2019-02-18T09:21:21.468Z,21.60
2019-02-18T09:23:55.583Z,19.20
2019-02-18T09:26:25.005Z,18.43
2019-02-18T09:28:54.387Z,18.77
2019-02-18T09:31:24.769Z,19.03
2019-02-18T09:33:53.732Z,19.97
2019-02-18T09:36:22.788Z,20.13
2019-02-18T09:38:52.453Z,20.07
2019-02-18T09:41:22.514Z,19.13
2019-02-18T09:43:52.160Z,19.80
2019-02-18T09:46:21.775Z,16.00
2019-02-18T09:48:50.674Z,15.73
2019-02-18T09:51:19.297Z,18.60
2019-02-18T09:53:48.122Z,20.10
2019-02-18T09:56:18.885Z,16.73
2019-02-18T09:58:50.173Z,18.20
2019-02-18T10:01:19.436Z,18.47
2019-02-18T10:03:52.113Z,15.00
2019-02-18T10:06:22.312Z,15.70
2019-02-18T10:08:53.975Z,15.33
2019-02-18T10:11:27.339Z,15.73
2019-02-18T10:13:56.212Z,17.00
2019-02-18T10:16:28.427Z,18.17
2019-02-18T10:18:57.072Z,15.70
2019-02-18T10:21:27.756Z,16.20
2019-02-18T10:23:56.616Z,17.77
2019-02-18T10:26:27.115Z,15.30
2019-02-18T10:28:56.214Z,15.17
2019-02-18T10:31:24.855Z,15.83
2019-02-18T10:33:56.091Z,15.43
2019-02-18T10:36:26.354Z,16.60
2019-02-18T10:38:56.685Z,15.87
2019-02-18T10:41:26.869Z,16.37
2019-02-18T10:43:55.640Z,15.83
2019-02-18T10:46:26.192Z,14.53
2019-02-18T10:48:58.053Z,13.93
2019-02-18T10:51:30.791Z,13.70
2019-02-18T10:54:01.979Z,13.93
2019-02-18T10:56:30.847Z,14.10
2019-02-18T10:58:59.644Z,12.07
2019-02-18T11:01:28.458Z,12.63
2019-02-18T11:03:59.560Z,12.97
2019-02-18T11:06:29.776Z,12.80
2019-02-18T11:08:58.583Z,12.53
2019-02-18T11:11:27.372Z,25.20
2019-02-18T11:13:56.823Z,10.80
2019-02-18T11:16:27.943Z,10.70
2019-02-18T11:18:58.025Z,10.90
2019-02-18T11:21:32.211Z,9.53
2019-02-18T11:23:59.936Z,9.87
2019-02-18T11:26:31.275Z,10.17
2019-02-18T11:29:02.607Z,10.50
2019-02-18T11:31:32.843Z,11.03
2019-02-18T11:34:01.667Z,10.93
2019-02-18T11:36:31.595Z,10.13
2019-02-18T11:39:20.447Z,10.37
2019-02-18T11:41:49.196Z,9.70
2019-02-18T11:44:22.798Z,10.07
2019-02-18T11:46:52.087Z,11.70
2019-02-18T11:49:22.792Z,11.57
2019-02-18T11:52:01.115Z,10.37
2019-02-18T11:54:31.552Z,10.10
2019-02-18T11:57:00.340Z,9.63
2019-02-18T11:59:29.110Z,9.73
2019-02-18T12:01:59.742Z,10.10
2019-02-18T12:04:32.446Z,11.27
2019-02-18T12:07:01.685Z,9.93
2019-02-18T12:09:30.754Z,10.00
2019-02-18T12:12:04.695Z,11.90
2019-02-18T12:14:31.728Z,12.43
2019-02-18T12:17:02.152Z,16.30
2019-02-18T12:19:31.008Z,10.60
2019-02-18T12:22:01.712Z,9.03
2019-02-18T12:24:32.439Z,10.13
2019-02-18T12:27:05.271Z,11.20
2019-02-18T12:29:34.820Z,10.60
2019-02-18T12:32:05.353Z,9.00
2019-02-18T12:34:36.511Z,11.03
2019-02-18T12:37:12.032Z,9.67
2019-02-18T12:39:43.694Z,11.23
2019-02-18T12:42:17.172Z,10.03
2019-02-18T12:44:48.385Z,8.90
2019-02-18T12:47:17.972Z,10.40
2019-02-18T12:49:50.998Z,9.80
2019-02-18T12:52:19.768Z,13.60
2019-02-18T12:54:49.821Z,12.10
2019-02-18T12:57:20.139Z,9.20
2019-02-18T12:59:53.090Z,10.00
2019-02-18T13:02:24.051Z,9.17
2019-02-18T13:04:56.496Z,10.53
2019-02-18T13:07:26.714Z,10.03
2019-02-18T13:10:00.365Z,9.87
2019-02-18T13:12:27.029Z,9.47
2019-02-18T13:14:56.427Z,9.57
2019-02-18T13:17:25.474Z,10.23
2019-02-18T13:19:55.600Z,9.43
2019-02-18T13:22:24.528Z,9.30
2019-02-18T13:24:54.530Z,8.40
2019-02-18T13:27:27.098Z,9.07
2019-02-18T13:29:56.261Z,8.50
2019-02-18T13:32:30.264Z,9.90
2019-02-18T13:35:01.614Z,10.27
2019-02-18T13:37:30.751Z,10.17
2019-02-18T13:40:02.227Z,10.33
2019-02-18T13:42:32.409Z,9.37
2019-02-18T13:45:07.321Z,10.70
2019-02-18T13:47:36.503Z,9.67
2019-02-18T13:50:10.635Z,9.47
2019-02-18T13:52:39.425Z,10.93
2019-02-18T13:55:10.787Z,9.47
2019-02-18T13:57:40.266Z,10.20
2019-02-18T14:00:17.546Z,9.53
2019-02-18T14:02:48.578Z,10.80
2019-02-18T14:05:18.887Z,11.57
2019-02-18T14:07:47.991Z,11.30
2019-02-18T14:10:17.445Z,9.47
2019-02-18T14:12:48.387Z,10.30
2019-02-18T14:15:18.900Z,10.67
2019-02-18T14:17:50.493Z,11.40
2019-02-18T14:20:20.778Z,10.27
2019-02-18T14:22:53.131Z,11.23
2019-02-18T14:25:22.587Z,11.60
2019-02-18T14:27:52.450Z,12.97
2019-02-18T14:30:22.665Z,11.90
2019-02-18T14:32:51.767Z,11.43
2019-02-18T14:35:25.380Z,11.13
2019-02-18T14:37:55.951Z,12.63
2019-02-18T14:40:27.816Z,13.03
2019-02-18T14:42:56.684Z,13.97
2019-02-18T14:45:28.958Z,13.20
2019-02-18T14:47:58.638Z,16.77
2019-02-18T14:50:35.308Z,14.27
2019-02-18T14:53:06.070Z,14.50
2019-02-18T14:55:35.542Z,12.90
2019-02-18T14:58:16.548Z,13.43
2019-02-18T15:00:51.354Z,13.57
2019-02-18T15:03:27.046Z,13.90
2019-02-18T15:05:59.326Z,13.90
2019-02-18T15:08:29.356Z,13.77
2019-02-18T15:11:00.824Z,13.63
2019-02-18T15:13:31.074Z,14.83
2019-02-18T15:16:01.613Z,14.70
2019-02-18T15:18:30.422Z,13.20
2019-02-18T15:21:00.601Z,15.43
2019-02-18T15:23:33.664Z,14.83
2019-02-18T15:26:04.073Z,13.57
2019-02-18T15:28:35.749Z,15.73
2019-02-18T15:31:09.337Z,17.57
2019-02-18T15:33:47.376Z,16.73
2019-02-18T15:36:17.992Z,17.77
2019-02-18T15:38:50.288Z,19.20
2019-02-18T15:41:19.155Z,17.17
2019-02-18T15:43:47.871Z,18.10
2019-02-18T15:46:18.084Z,26.60
2019-02-18T15:48:50.660Z,18.73
2019-02-18T15:51:23.155Z,19.37
2019-02-18T15:53:52.087Z,20.80
2019-02-18T15:56:22.515Z,19.23
2019-02-18T15:58:54.360Z,20.30
2019-02-18T16:01:23.124Z,21.13
2019-02-18T16:03:52.286Z,20.27
2019-02-18T16:06:23.837Z,20.43
2019-02-18T16:08:53.140Z,20.37
2019-02-18T16:11:26.636Z,18.67
2019-02-18T16:13:56.003Z,20.57
2019-02-18T16:16:29.235Z,20.90
2019-02-18T16:19:01.261Z,22.47
2019-02-18T16:21:30.391Z,20.17
2019-02-18T16:23:59.227Z,20.97
2019-02-18T16:26:27.992Z,20.33
2019-02-18T16:28:58.178Z,20.47
2019-02-18T16:31:30.532Z,21.30
2019-02-18T16:34:00.435Z,20.83
2019-02-18T16:36:31.375Z,22.57
2019-02-18T16:39:12.694Z,21.67
2019-02-18T16:41:43.415Z,22.53
2019-02-18T16:44:13.240Z,22.70
2019-02-18T16:46:45.046Z,22.77
2019-02-18T16:49:19.640Z,22.97
2019-02-18T16:51:48.597Z,23.43
2019-02-18T16:54:23.188Z,24.03
2019-02-18T16:56:51.993Z,23.33
2019-02-18T16:59:22.799Z,24.80
2019-02-18T17:01:53.836Z,23.60
2019-02-18T17:04:24.040Z,25.47
2019-02-18T17:06:54.126Z,25.17
2019-02-18T17:09:24.942Z,25.27
2019-02-18T17:11:57.426Z,24.00
2019-02-18T17:14:28.454Z,25.03
2019-02-18T17:17:01.880Z,23.43
2019-02-18T17:19:32.345Z,24.10
2019-02-18T17:22:04.567Z,24.83
2019-02-18T17:24:34.669Z,24.57
2019-02-18T17:27:06.192Z,25.40
2019-02-18T17:29:41.056Z,24.43
2019-02-18T17:32:13.171Z,26.50
2019-02-18T17:34:45.679Z,25.93
2019-02-18T17:37:14.905Z,27.10
2019-02-18T17:39:48.752Z,27.77
2019-02-18T17:42:18.084Z,27.37
2019-02-18T17:44:48.388Z,26.70
2019-02-18T17:47:17.590Z,28.77
2019-02-18T17:49:46.652Z,30.50
2019-02-18T17:52:18.587Z,29.77
2019-02-18T17:54:53.312Z,32.57
2019-02-18T17:57:23.716Z,30.17
2019-02-18T17:59:55.888Z,30.37
2019-02-18T18:02:33.469Z,32.77
2019-02-18T18:05:02.307Z,32.97
2019-02-18T18:07:31.067Z,32.77
2019-02-18T18:10:01.065Z,35.67
2019-02-18T18:12:36.524Z,34.57
2019-02-18T18:15:10.124Z,35.80
2019-02-18T18:17:41.794Z,36.60
2019-02-18T18:20:15.298Z,39.13
2019-02-18T18:22:44.050Z,36.70
2019-02-18T18:25:19.895Z,37.53
2019-02-18T18:27:48.733Z,38.47
2019-02-18T18:30:20.314Z,39.17
2019-02-18T18:32:51.849Z,38.60
2019-02-18T18:38:17.169Z,39.33
2019-02-18T18:40:45.741Z,40.63
2019-02-18T18:43:15.509Z,40.23
2019-02-18T18:45:45.550Z,42.67
2019-02-18T18:48:15.561Z,40.73
2019-02-18T18:50:44.366Z,43.20
2019-02-18T18:53:13.221Z,43.87
2019-02-18T18:55:44.019Z,43.20
2019-02-18T18:58:13.895Z,44.33
2019-02-18T19:00:45.781Z,42.63
2019-02-18T19:03:17.532Z,43.83
2019-02-18T19:05:50.678Z,43.23
2019-02-18T19:08:20.712Z,42.20
2019-02-18T19:10:49.551Z,43.83
2019-02-18T19:13:21.763Z,44.27
2019-02-18T19:15:50.717Z,41.07
2019-02-18T19:18:21.589Z,41.73
2019-02-18T19:20:50.378Z,43.93
2019-02-18T19:23:20.542Z,43.50
2019-02-18T19:25:53.846Z,45.83
2019-02-18T19:28:23.994Z,46.50
2019-02-18T19:30:55.442Z,47.40
2019-02-18T19:33:25.492Z,46.97
2019-02-18T19:35:56.811Z,48.57
2019-02-18T19:38:28.950Z,46.07
2019-02-18T19:40:57.723Z,44.40
2019-02-18T19:43:29.989Z,47.70
2019-02-18T19:45:59.657Z,45.57
2019-02-18T19:48:28.918Z,44.50
2019-02-18T19:50:58.315Z,45.27
2019-02-18T19:53:27.252Z,44.70
2019-02-18T19:55:56.071Z,45.83
2019-02-18T19:58:27.511Z,48.00
2019-02-18T20:00:56.525Z,46.73
2019-02-18T20:03:33.504Z,45.13
2019-02-18T20:06:01.786Z,46.60
2019-02-18T20:08:31.063Z,46.13
2019-02-18T20:11:02.489Z,45.80
2019-02-18T20:13:41.993Z,47.07
2019-02-18T20:16:10.747Z,48.83
2019-02-18T20:18:40.576Z,49.27
2019-02-18T20:21:10.023Z,46.83
2019-02-18T20:23:38.675Z,48.83
2019-02-18T20:26:09.116Z,49.60
2019-02-18T20:28:40.378Z,50.10
2019-02-18T20:31:11.726Z,47.60
2019-02-18T20:33:42.036Z,49.40
2019-02-18T20:36:13.953Z,49.00
2019-02-18T20:38:45.933Z,50.37
2019-02-18T20:41:14.876Z,52.67
2019-02-18T20:43:44.320Z,52.97
2019-02-18T20:46:15.189Z,53.03
2019-02-18T20:48:48.455Z,53.83
2019-02-18T20:51:14.635Z,53.80
2019-02-18T20:53:45.142Z,54.27
2019-02-18T20:56:17.303Z,54.50
2019-02-18T20:58:47.603Z,54.63
2019-02-18T21:01:17.516Z,54.70
2019-02-18T21:04:06.173Z,54.20
2019-02-18T21:06:37.298Z,54.37
2019-02-18T21:09:07.185Z,51.23
2019-02-18T21:11:36.037Z,51.20
2019-02-18T21:14:15.937Z,55.63
2019-02-18T21:19:29.011Z,52.87
2019-02-18T21:21:57.727Z,53.83
2019-02-18T21:24:28.154Z,56.00
2019-02-18T21:26:59.083Z,53.93
2019-02-18T21:29:27.820Z,52.87
2019-02-18T21:31:58.621Z,52.07
2019-02-18T21:34:32.601Z,53.87
2019-02-18T21:37:03.333Z,53.33
2019-02-18T21:39:35.135Z,56.20
2019-02-18T21:42:06.953Z,55.10
2019-02-18T21:44:37.290Z,53.70
2019-02-18T21:47:08.139Z,52.97
2019-02-18T21:49:36.669Z,55.17
2019-02-18T21:52:06.588Z,53.57
2019-02-18T21:54:37.795Z,53.00
2019-02-18T21:57:06.545Z,54.87
2019-02-18T21:59:36.960Z,57.83
2019-02-18T22:02:07.736Z,57.90
2019-02-18T22:04:39.608Z,57.13
2019-02-18T22:07:15.094Z,54.73
2019-02-18T22:09:49.880Z,57.33
2019-02-18T22:12:21.976Z,55.27
2019-02-18T22:14:50.726Z,57.63
2019-02-18T22:17:19.568Z,56.20
2019-02-18T22:19:55.704Z,55.30
2019-02-18T22:22:25.935Z,54.87
2019-02-18T22:24:56.788Z,53.90
2019-02-18T22:27:28.753Z,55.60
2019-02-18T22:29:59.132Z,56.07
2019-02-18T22:32:30.719Z,56.13
2019-02-18T22:34:59.345Z,55.40
2019-02-18T22:37:28.230Z,58.40
2019-02-18T22:40:02.887Z,56.23
2019-02-18T22:42:32.387Z,56.27
2019-02-18T22:45:04.388Z,55.97
2019-02-18T22:47:36.503Z,59.53
2019-02-18T22:50:06.712Z,58.10
2019-02-18T22:52:37.198Z,58.87
2019-02-18T22:55:08.362Z,59.30
2019-02-18T22:57:37.156Z,59.47
2019-02-18T23:00:12.578Z,59.13
2019-02-18T23:02:45.683Z,56.93
2019-02-18T23:05:17.353Z,58.17
2019-02-18T23:07:47.555Z,57.83
2019-02-18T23:10:16.363Z,59.27
2019-02-18T23:12:50.766Z,55.17
2019-02-18T23:15:17.601Z,58.07
2019-02-18T23:17:47.851Z,60.17
2019-02-18T23:20:18.939Z,62.67
2019-02-18T23:22:49.129Z,62.13
2019-02-18T23:25:19.249Z,59.30
2019-02-18T23:27:48.099Z,60.30
2019-02-18T23:30:16.890Z,60.83
2019-02-18T23:32:45.592Z,58.57
2019-02-18T23:35:15.253Z,60.40
2019-02-18T23:37:43.852Z,60.60
2019-02-18T23:40:12.736Z,61.23
2019-02-18T23:42:43.570Z,57.60
2019-02-18T23:45:13.741Z,56.73
2019-02-18T23:47:43.297Z,59.43
2019-02-18T23:50:14.373Z,59.80
2019-02-18T23:52:43.202Z,55.93
2019-02-18T23:55:12.609Z,59.87
2019-02-18T23:57:41.524Z,59.80
